CheckWX is a tool to help pilots better visualize weather data.  It is not intended as a substitute for an official pre-flight weather briefing.

20:39:38 UTC

KFYE METAR
Fayette County Airport
Somerville, Tennessee, USA
Current

25 mins ago

KFYE 252015Z AUTO 00000KT 10SM CLR 31/21 A3005 RMK A01
Observed
Jun-25 @ 20:15 UTC
Visibility
10 SM
Flight Rules
VFR
Cloud Levels
  • Clear skies
Temperature
31°C / 88°F
Dewpoint
21°C / 70°F
Heat Index
34°C / 93°F
Humidity
55%
Altimeter
30.05" Hg
Pressure
1017.62 hPa
Previous

40 mins ago

KFYE 252000Z AUTO 00000KT 10SM CLR 30/20 A3006 RMK A01
Observed
Jun-25 @ 20:00 UTC
Visibility
10 SM
Flight Rules
VFR
Cloud Levels
  • Clear skies
Temperature
30°C / 86°F
Dewpoint
20°C / 68°F
Heat Index
32°C / 89°F
Humidity
55%
Altimeter
30.06" Hg
Pressure
1017.92 hPa
Previous

60 mins ago

KFYE 251940Z AUTO 23005KT 10SM CLR 30/20 A3006 RMK A01
Observed
Jun-25 @ 19:40 UTC
Wind
  • 230° at 5 KTS
Visibility
10 SM
Flight Rules
VFR
Cloud Levels
  • Clear skies
Temperature
30°C / 86°F
Dewpoint
20°C / 68°F
Heat Index
32°C / 89°F
Humidity
55%
Altimeter
30.06" Hg
Pressure
1017.92 hPa